createdAt,value
2022-11-30T00:00:28.973Z,96284.09
2022-11-30T00:02:57.351Z,96308.91
2022-11-30T00:05:26.227Z,96315.06
2022-11-30T00:07:54.448Z,96316.66
2022-11-30T00:10:22.833Z,96296.75
2022-11-30T00:12:50.291Z,96302.75
2022-11-30T00:15:18.291Z,96307.31
2022-11-30T00:17:45.810Z,96319.44
2022-11-30T00:20:14.040Z,96313.72
2022-11-30T00:22:42.877Z,96294.09
2022-11-30T00:25:10.634Z,96324.00
2022-11-30T00:27:38.078Z,96310.91
2022-11-30T00:30:06.582Z,96304.56
2022-11-30T00:32:34.023Z,96303.75
2022-11-30T00:35:02.100Z,96315.44
2022-11-30T00:37:29.493Z,96320.59
2022-11-30T00:39:58.262Z,96308.91
2022-11-30T00:42:25.683Z,96300.75
2022-11-30T00:44:53.083Z,96310.72
2022-11-30T00:47:20.521Z,96308.31
2022-11-30T00:49:47.940Z,96308.09
2022-11-30T00:52:15.364Z,96311.06
2022-11-30T00:54:42.802Z,96313.44
2022-11-30T00:57:11.599Z,96315.84
2022-11-30T00:59:39.015Z,96319.25
2022-11-30T01:02:06.503Z,96312.25
2022-11-30T01:04:33.984Z,96292.81
2022-11-30T01:07:01.474Z,96316.25
2022-11-30T01:09:28.890Z,96298.97
2022-11-30T01:11:56.367Z,96311.44
2022-11-30T01:14:25.387Z,96300.69
2022-11-30T01:16:56.226Z,96304.88
2022-11-30T01:19:24.732Z,96314.44
2022-11-30T01:21:52.152Z,96304.91
2022-11-30T01:24:19.577Z,96306.69
2022-11-30T01:26:46.993Z,96309.66
2022-11-30T01:29:14.442Z,96313.84
2022-11-30T01:31:43.216Z,96307.03
2022-11-30T01:34:10.630Z,96317.59
2022-11-30T01:36:38.859Z,96310.06
2022-11-30T01:39:09.241Z,96308.66
2022-11-30T01:41:37.962Z,96304.09
2022-11-30T01:44:49.262Z,96303.09
2022-11-30T01:47:22.016Z,96290.56
2022-11-30T01:49:54.950Z,96307.25
2022-11-30T01:52:26.177Z,96297.16
2022-11-30T01:54:56.806Z,96299.94
2022-11-30T01:57:29.787Z,96281.69
2022-11-30T02:00:01.399Z,96312.06
2022-11-30T02:02:39.093Z,96310.69
2022-11-30T02:05:07.986Z,96299.16
2022-11-30T02:07:36.088Z,96312.66
2022-11-30T02:10:03.783Z,96300.34
2022-11-30T02:12:40.089Z,96317.03
2022-11-30T02:15:12.857Z,96315.25
2022-11-30T02:17:51.807Z,96311.69
2022-11-30T02:20:34.045Z,96293.88
2022-11-30T02:23:23.409Z,96317.47
2022-11-30T02:25:59.427Z,96314.94
2022-11-30T02:28:58.705Z,96313.72
2022-11-30T02:31:30.854Z,96322.88
2022-11-30T02:34:00.355Z,96317.50
2022-11-30T02:36:29.535Z,96310.94
2022-11-30T02:38:58.646Z,96306.94
2022-11-30T02:41:26.080Z,96309.34
2022-11-30T02:43:53.549Z,96310.31
2022-11-30T02:46:30.054Z,96315.66
2022-11-30T02:49:06.815Z,96311.31
2022-11-30T02:51:38.511Z,96318.88
2022-11-30T02:54:06.098Z,96317.47
2022-11-30T02:56:34.526Z,96306.56
2022-11-30T02:59:02.034Z,96320.06
2022-11-30T03:01:30.954Z,96310.91
2022-11-30T03:03:58.377Z,96317.25
2022-11-30T03:06:25.791Z,96301.94
2022-11-30T03:08:53.225Z,96310.91
2022-11-30T03:11:20.654Z,96311.06
2022-11-30T03:13:48.112Z,96327.75
2022-11-30T03:16:15.639Z,96323.59
2022-11-30T03:18:44.623Z,96319.81
2022-11-30T03:21:13.647Z,96330.34
2022-11-30T03:23:41.398Z,96328.75
2022-11-30T03:26:09.792Z,96328.53
2022-11-30T03:28:37.805Z,96337.69
2022-11-30T03:31:06.619Z,96329.94
2022-11-30T03:33:34.100Z,96327.16
2022-11-30T03:36:05.709Z,96332.13
2022-11-30T03:38:33.383Z,96330.34
2022-11-30T03:41:02.381Z,96330.94
2022-11-30T03:43:29.912Z,96329.75
2022-11-30T03:45:57.451Z,96323.19
2022-11-30T03:48:24.948Z,96335.69
2022-11-30T03:50:52.479Z,96340.88
2022-11-30T03:53:23.161Z,96333.16
2022-11-30T03:55:53.926Z,96332.53
2022-11-30T03:58:21.455Z,96320.78
2022-11-30T04:00:48.892Z,96338.31
2022-11-30T04:03:16.940Z,96330.34
2022-11-30T04:05:44.601Z,96340.28
2022-11-30T04:08:12.050Z,96338.31
2022-11-30T04:10:40.826Z,96325.63
2022-11-30T04:13:08.261Z,96342.91
2022-11-30T04:15:35.695Z,96322.81
2022-11-30T04:18:03.128Z,96329.41
2022-11-30T04:20:30.649Z,96332.56
2022-11-30T04:22:58.124Z,96329.34
2022-11-30T04:25:25.701Z,96326.19
2022-11-30T04:27:54.459Z,96317.66
2022-11-30T04:30:22.013Z,96307.94
2022-11-30T04:32:49.435Z,96328.75
2022-11-30T04:35:16.838Z,96327.78
2022-11-30T04:37:44.342Z,96326.00
2022-11-30T04:40:12.648Z,96322.03
2022-11-30T04:42:40.098Z,96337.31
2022-11-30T04:45:10.155Z,96322.22
2022-11-30T04:47:37.716Z,96328.41
2022-11-30T04:50:06.601Z,96322.22
2022-11-30T04:52:34.397Z,96321.00
2022-11-30T04:55:01.828Z,96321.41
2022-11-30T04:57:29.250Z,96336.94
2022-11-30T04:59:56.678Z,96335.34
2022-11-30T05:02:25.531Z,96328.00
2022-11-30T05:04:53.009Z,96328.00
2022-11-30T05:07:20.500Z,96330.16
2022-11-30T05:09:48.010Z,96318.25
2022-11-30T05:12:15.411Z,96320.00
2022-11-30T05:14:42.823Z,96332.53
2022-11-30T05:17:10.269Z,96327.53
2022-11-30T05:19:39.003Z,96327.59
2022-11-30T05:22:06.481Z,96320.19
2022-11-30T05:24:33.977Z,96334.50
2022-11-30T05:27:01.538Z,96332.88
2022-11-30T05:29:28.965Z,96335.69
2022-11-30T05:31:56.466Z,96323.75
2022-11-30T05:34:23.935Z,96335.47
2022-11-30T05:36:52.721Z,96337.47
2022-11-30T05:39:20.150Z,96340.47
2022-11-30T05:41:47.844Z,96340.06
2022-11-30T05:44:15.946Z,96321.84
2022-11-30T05:46:43.399Z,96335.91
2022-11-30T05:49:10.835Z,96340.91
2022-11-30T05:51:40.258Z,96328.75
2022-11-30T05:54:09.049Z,96337.91
2022-11-30T05:56:36.515Z,96346.84
2022-11-30T05:59:03.928Z,96341.50
2022-11-30T06:01:31.429Z,96351.66
2022-11-30T06:03:58.879Z,96349.47
2022-11-30T06:06:26.395Z,96337.34
2022-11-30T06:08:55.105Z,96349.03
2022-11-30T06:11:23.871Z,96352.84
2022-11-30T06:13:51.314Z,96341.91
2022-11-30T06:16:18.786Z,96344.31
2022-11-30T06:18:46.241Z,96341.13
2022-11-30T06:21:13.656Z,96347.88
2022-11-30T06:23:41.080Z,96350.09
2022-11-30T06:26:11.125Z,96346.53
2022-11-30T06:28:45.341Z,96363.00
2022-11-30T06:31:15.327Z,96366.38
2022-11-30T06:33:42.894Z,96373.53
2022-11-30T06:36:11.120Z,96364.78
2022-11-30T06:38:39.251Z,96373.94
2022-11-30T06:41:09.048Z,96381.50
2022-11-30T06:43:37.920Z,96382.91
2022-11-30T06:46:07.934Z,96379.13
2022-11-30T06:48:36.251Z,96385.88
2022-11-30T06:51:06.386Z,96378.31
2022-11-30T06:53:33.898Z,96386.66
2022-11-30T06:56:09.870Z,96382.31
2022-11-30T06:58:38.181Z,96384.91
2022-11-30T07:01:07.752Z,96385.28
2022-11-30T07:03:35.324Z,96388.06
2022-11-30T07:06:07.884Z,96394.41
2022-11-30T07:08:35.499Z,96385.88
2022-11-30T07:11:03.137Z,96390.47
2022-11-30T07:13:30.874Z,96391.44
2022-11-30T07:15:58.342Z,96389.06
2022-11-30T07:18:31.698Z,96376.75
2022-11-30T07:21:00.093Z,96390.28
2022-11-30T07:23:45.245Z,96389.09
2022-11-30T07:26:12.863Z,96397.81
2022-11-30T07:28:42.570Z,96391.28
2022-11-30T07:31:18.941Z,96359.91
2022-11-30T07:33:48.790Z,96390.47
2022-11-30T07:36:17.382Z,96386.09
2022-11-30T07:38:44.890Z,96396.03
2022-11-30T07:41:12.926Z,96395.06
2022-11-30T07:43:40.761Z,96393.28
2022-11-30T07:46:08.849Z,96406.38
2022-11-30T07:48:36.302Z,96411.91
2022-11-30T07:51:06.779Z,96404.16
2022-11-30T07:53:34.267Z,96415.91
2022-11-30T07:56:06.401Z,96412.31
2022-11-30T07:58:34.697Z,96408.53
2022-11-30T08:01:03.558Z,96408.53
2022-11-30T08:03:36.578Z,96414.88
2022-11-30T08:06:08.493Z,96414.69
2022-11-30T08:08:39.602Z,96414.28
2022-11-30T08:11:09.085Z,96415.47
2022-11-30T08:13:36.837Z,96393.06
2022-11-30T08:16:06.326Z,96417.28
2022-11-30T08:18:34.100Z,96407.34
2022-11-30T08:21:03.674Z,96409.53
2022-11-30T08:23:33.500Z,96422.25
2022-11-30T08:26:04.424Z,96418.88
2022-11-30T08:28:31.862Z,96415.88
2022-11-30T08:31:01.053Z,96415.50
2022-11-30T08:33:30.851Z,96415.69
2022-11-30T08:36:07.026Z,96435.38
2022-11-30T08:38:35.871Z,96437.94
2022-11-30T08:41:03.526Z,96435.97
2022-11-30T08:43:31.015Z,96439.75
2022-11-30T08:45:58.719Z,96428.84
2022-11-30T08:48:26.227Z,96444.50
2022-11-30T08:50:53.659Z,96439.53
2022-11-30T08:53:21.114Z,96441.31
2022-11-30T08:55:57.912Z,96439.16
2022-11-30T08:58:25.472Z,96455.84
2022-11-30T09:00:53.570Z,96453.63
2022-11-30T09:03:21.207Z,96457.81
2022-11-30T09:05:48.635Z,96454.44
2022-11-30T09:08:16.449Z,96446.09
2022-11-30T09:10:43.869Z,96443.09
2022-11-30T09:13:12.703Z,96453.44
2022-11-30T09:15:42.358Z,96452.25
2022-11-30T09:18:09.768Z,96466.94
2022-11-30T09:20:37.267Z,96460.22
2022-11-30T09:23:04.668Z,96469.72
2022-11-30T09:25:32.090Z,96462.16
2022-11-30T09:27:59.507Z,96460.56
2022-11-30T09:30:28.318Z,96453.03
2022-11-30T09:32:55.805Z,96469.13
2022-11-30T09:35:23.233Z,96460.97
2022-11-30T09:37:50.637Z,96474.63
2022-11-30T09:40:19.505Z,96431.56
2022-11-30T09:42:58.053Z,96472.47
2022-11-30T09:45:32.230Z,96467.69
2022-11-30T09:48:15.437Z,96465.34
2022-11-30T09:50:44.677Z,96472.50
2022-11-30T09:53:26.045Z,96470.09
2022-11-30T09:55:57.648Z,96459.19
2022-11-30T09:58:35.690Z,96464.72
2022-11-30T10:01:07.529Z,96462.16
2022-11-30T10:03:35.134Z,96464.34
2022-11-30T10:06:09.338Z,96469.13
2022-11-30T10:08:54.511Z,96472.28
2022-11-30T10:11:34.289Z,96467.09
2022-11-30T10:14:17.580Z,96400.16
2022-11-30T10:16:56.377Z,96449.25
2022-11-30T10:19:43.848Z,96460.41
2022-11-30T10:22:19.273Z,96458.22
2022-11-30T10:25:10.184Z,96449.84
2022-11-30T10:27:49.060Z,96452.06
2022-11-30T10:30:18.604Z,96445.69
2022-11-30T10:32:51.799Z,96446.06
2022-11-30T10:35:24.793Z,96458.78
2022-11-30T10:37:54.533Z,96445.69
2022-11-30T10:40:27.372Z,96456.22
2022-11-30T10:43:05.652Z,96452.22
2022-11-30T10:45:33.977Z,96441.31
2022-11-30T10:48:11.042Z,96425.00
2022-11-30T10:50:38.676Z,96455.97
2022-11-30T10:53:06.309Z,96421.00
2022-11-30T10:55:37.219Z,96445.44
2022-11-30T10:58:10.721Z,96440.88
2022-11-30T11:00:38.141Z,96454.38
2022-11-30T11:03:23.945Z,96453.38
2022-11-30T11:06:06.713Z,96442.06
2022-11-30T11:08:35.214Z,96448.41
2022-11-30T11:11:02.909Z,96443.84
2022-11-30T11:13:38.471Z,96445.84
2022-11-30T11:16:07.998Z,96438.94
2022-11-30T11:18:37.712Z,96444.25
2022-11-30T11:21:08.035Z,96444.25
2022-11-30T11:23:38.702Z,96446.00
2022-11-30T11:26:07.881Z,96445.03
2022-11-30T11:28:37.314Z,96418.97
2022-11-30T11:31:18.444Z,96432.09
2022-11-30T11:33:54.073Z,96425.94
2022-11-30T11:36:28.526Z,96442.84
2022-11-30T11:38:57.063Z,96443.41
2022-11-30T11:41:27.401Z,96430.72
2022-11-30T11:44:02.910Z,96440.44
2022-11-30T11:46:31.881Z,96443.66
2022-11-30T11:49:03.467Z,96447.81
2022-11-30T11:51:34.030Z,96438.66
2022-11-30T11:54:06.729Z,96459.34
2022-11-30T11:56:36.433Z,96421.38
2022-11-30T11:59:15.256Z,96436.47
2022-11-30T12:01:53.552Z,96437.28
2022-11-30T12:04:41.544Z,96450.59
2022-11-30T12:07:20.186Z,96445.03
2022-11-30T12:09:58.131Z,96454.56
2022-11-30T12:12:25.652Z,96425.72
2022-11-30T12:14:54.516Z,96455.16
2022-11-30T12:17:33.086Z,96446.22
2022-11-30T12:20:14.125Z,96417.22
2022-11-30T12:23:04.970Z,96442.47
2022-11-30T12:25:37.100Z,96449.19
2022-11-30T12:28:20.058Z,96446.81
2022-11-30T12:30:57.614Z,96426.38
2022-11-30T12:33:36.856Z,96429.94
2022-11-30T12:36:15.181Z,96438.88
2022-11-30T12:38:49.896Z,96436.28
2022-11-30T12:41:32.240Z,96442.88
2022-11-30T12:44:11.335Z,96435.13
2022-11-30T12:46:46.430Z,96434.72
2022-11-30T12:49:27.507Z,96451.00
2022-11-30T12:52:03.879Z,96443.84
2022-11-30T12:54:38.479Z,96446.44
2022-11-30T12:57:13.907Z,96446.03
2022-11-30T12:59:48.864Z,96442.06
2022-11-30T13:02:43.539Z,96427.19
2022-11-30T13:05:14.898Z,96432.91
2022-11-30T13:07:47.327Z,96442.44
2022-11-30T13:10:23.681Z,96452.16
2022-11-30T13:12:54.306Z,96450.56
2022-11-30T13:15:25.346Z,96453.16
2022-11-30T13:17:54.006Z,96451.38
2022-11-30T13:20:26.543Z,96436.72
2022-11-30T13:23:01.217Z,96443.03
2022-11-30T13:26:06.929Z,96444.63
2022-11-30T13:28:32.128Z,96447.44
2022-11-30T13:31:07.620Z,96447.81
2022-11-30T13:33:39.621Z,96436.91
2022-11-30T13:36:22.029Z,96433.69
2022-11-30T13:39:10.035Z,96440.47
2022-11-30T13:41:39.066Z,96439.47
2022-11-30T13:44:06.917Z,96446.81
2022-11-30T13:46:35.435Z,96447.00
2022-11-30T13:49:22.065Z,96451.19
2022-11-30T13:52:07.062Z,96441.66
2022-11-30T13:54:40.830Z,96449.78
2022-11-30T13:57:20.348Z,96439.91
2022-11-30T13:59:49.896Z,96461.28
2022-11-30T14:02:50.291Z,96454.13
2022-11-30T14:05:27.156Z,96448.81
2022-11-30T14:08:31.061Z,96457.34
2022-11-30T14:11:31.859Z,96459.72
2022-11-30T14:14:44.771Z,96465.28
2022-11-30T14:17:17.661Z,96466.25
2022-11-30T14:19:47.569Z,96398.91
2022-11-30T14:22:16.008Z,96461.09
2022-11-30T14:24:46.985Z,96465.88
2022-11-30T14:27:18.624Z,96469.44
2022-11-30T14:29:53.030Z,96471.41
2022-11-30T14:32:28.980Z,96470.81
2022-11-30T14:35:04.575Z,96479.94
2022-11-30T14:37:36.673Z,96478.72
2022-11-30T14:40:06.874Z,96472.81
2022-11-30T14:42:35.632Z,96477.16
2022-11-30T14:45:05.093Z,96472.81
2022-11-30T14:47:34.183Z,96475.16
2022-11-30T14:50:05.554Z,96461.66
2022-11-30T14:52:52.542Z,96466.25
2022-11-30T14:55:29.576Z,96469.81
2022-11-30T14:58:07.362Z,96462.47
2022-11-30T15:00:40.397Z,96461.69
2022-11-30T15:03:19.603Z,96444.78
2022-11-30T15:05:47.446Z,96459.31
2022-11-30T15:08:17.821Z,96472.41
2022-11-30T15:10:45.583Z,96463.25
2022-11-30T15:13:16.563Z,96468.25
2022-11-30T15:15:53.854Z,96466.88
2022-11-30T15:18:22.991Z,96460.88
2022-11-30T15:20:55.201Z,96460.69
2022-11-30T15:23:23.523Z,96470.41
2022-11-30T15:25:53.834Z,96468.81
2022-11-30T15:28:25.252Z,96478.34
2022-11-30T15:30:57.829Z,96471.97
2022-11-30T15:33:32.616Z,96465.22
2022-11-30T15:38:52.386Z,96480.31
2022-11-30T15:41:22.235Z,96480.31
2022-11-30T15:43:53.087Z,96488.66
2022-11-30T15:46:39.780Z,96490.03
2022-11-30T15:49:17.068Z,96493.59
2022-11-30T15:51:46.736Z,96477.72
2022-11-30T15:54:15.242Z,96470.56
2022-11-30T15:56:42.794Z,96488.44
2022-11-30T15:59:22.962Z,96456.84
2022-11-30T16:02:01.952Z,96485.06
2022-11-30T16:04:30.521Z,96496.78
2022-11-30T16:06:58.011Z,96495.25
2022-11-30T16:09:32.285Z,96493.00
2022-11-30T16:12:01.168Z,96493.78
2022-11-30T16:14:29.096Z,96475.50
2022-11-30T16:16:58.107Z,96503.75
2022-11-30T16:19:25.568Z,96497.78
2022-11-30T16:21:53.197Z,96486.84
2022-11-30T16:24:22.219Z,96502.53
2022-11-30T16:26:51.763Z,96514.41
2022-11-30T16:29:19.665Z,96498.91
2022-11-30T16:31:47.248Z,96493.00
2022-11-30T16:34:16.172Z,96507.69
2022-11-30T16:36:43.650Z,96499.75
2022-11-30T16:39:12.793Z,96517.59
2022-11-30T16:41:40.458Z,96510.81
2022-11-30T16:44:13.972Z,96512.41
2022-11-30T16:46:41.453Z,96494.19
2022-11-30T16:49:08.860Z,96482.03
2022-11-30T16:51:37.665Z,96515.50
2022-11-30T16:54:05.516Z,96518.28
2022-11-30T16:56:33.215Z,96520.22
2022-11-30T16:59:00.640Z,96496.19
2022-11-30T17:01:35.629Z,96513.13
2022-11-30T17:04:08.010Z,96523.81
2022-11-30T17:06:36.806Z,96528.56
2022-11-30T17:09:04.518Z,96539.69
2022-11-30T17:11:34.735Z,96503.91
2022-11-30T17:14:02.176Z,96536.69
2022-11-30T17:16:29.699Z,96536.47
2022-11-30T17:18:57.198Z,96530.38
2022-11-30T17:21:27.310Z,96532.78
2022-11-30T17:23:56.276Z,96527.34
2022-11-30T17:26:23.695Z,96526.75
2022-11-30T17:28:51.297Z,96542.66
2022-11-30T17:31:19.312Z,96534.75
2022-11-30T17:33:48.482Z,96533.97
2022-11-30T17:36:18.643Z,96537.72
2022-11-30T17:38:46.318Z,96540.84
2022-11-30T17:41:19.254Z,96542.63
2022-11-30T17:43:47.563Z,96557.19
2022-11-30T17:46:17.597Z,96539.16
2022-11-30T17:48:45.793Z,96544.69
2022-11-30T17:51:13.968Z,96535.47
2022-11-30T17:53:44.160Z,96534.16
2022-11-30T17:56:14.177Z,96535.53
2022-11-30T17:58:44.633Z,96543.69
2022-11-30T18:01:17.028Z,96536.56
2022-11-30T18:03:44.840Z,96507.09
2022-11-30T18:06:12.580Z,96542.28
2022-11-30T18:08:40.191Z,96547.25
2022-11-30T18:11:11.760Z,96545.06
2022-11-30T18:13:39.373Z,96559.34
2022-11-30T18:16:10.566Z,96556.38
2022-11-30T18:18:41.583Z,96571.88
2022-11-30T18:21:13.793Z,96562.91
2022-11-30T18:23:41.366Z,96553.19
2022-11-30T18:26:11.373Z,96574.00
2022-11-30T18:28:39.241Z,96564.88
2022-11-30T18:31:07.390Z,96559.34
2022-11-30T18:33:37.717Z,96578.84
2022-11-30T18:36:07.590Z,96580.44
2022-11-30T18:38:38.526Z,96541.28
2022-11-30T18:41:07.184Z,96573.50
2022-11-30T18:43:35.074Z,96568.19
2022-11-30T18:46:03.796Z,96572.72
2022-11-30T18:48:31.333Z,96577.06
2022-11-30T18:51:00.167Z,96571.13
2022-11-30T18:53:27.659Z,96574.72
2022-11-30T18:55:55.114Z,96579.88
2022-11-30T18:58:22.603Z,96583.41
2022-11-30T19:00:50.036Z,96574.88
2022-11-30T19:03:17.549Z,96577.09
2022-11-30T19:05:45.077Z,96557.75
2022-11-30T19:08:15.276Z,96570.13
2022-11-30T19:10:42.701Z,96574.72
2022-11-30T19:13:10.174Z,96578.06
2022-11-30T19:15:38.858Z,96586.81
2022-11-30T19:18:06.574Z,96575.69
2022-11-30T19:20:38.740Z,96580.47
2022-11-30T19:23:06.228Z,96581.81
2022-11-30T19:25:35.275Z,96580.88
2022-11-30T19:28:02.752Z,96586.03
2022-11-30T19:30:30.289Z,96574.88
2022-11-30T19:32:57.825Z,96564.69
2022-11-30T19:35:25.296Z,96580.88
2022-11-30T19:37:52.859Z,96582.84
2022-11-30T19:40:20.316Z,96580.66
2022-11-30T19:42:49.274Z,96590.97
2022-11-30T19:45:16.851Z,96572.28
2022-11-30T19:47:44.283Z,96587.03
2022-11-30T19:50:12.289Z,96589.59
2022-11-30T19:52:39.769Z,96593.75
2022-11-30T19:55:08.094Z,96588.16
2022-11-30T19:57:36.254Z,96592.34
2022-11-30T20:00:06.514Z,96581.19
2022-11-30T20:02:34.260Z,96593.94
2022-11-30T20:05:02.217Z,96560.50
2022-11-30T20:07:29.741Z,96579.00
2022-11-30T20:09:57.238Z,96599.88
2022-11-30T20:12:24.675Z,96594.53
2022-11-30T20:14:52.294Z,96595.75
2022-11-30T20:17:21.137Z,96590.56
2022-11-30T20:19:48.588Z,96576.69
2022-11-30T20:22:16.007Z,96595.97
2022-11-30T20:24:43.458Z,96610.06
2022-11-30T20:27:10.893Z,96591.78
2022-11-30T20:29:38.352Z,96589.75
2022-11-30T20:32:06.157Z,96597.50
2022-11-30T20:34:39.728Z,96604.09
2022-11-30T20:37:09.847Z,96593.59
2022-11-30T20:39:41.205Z,96573.66
2022-11-30T20:42:12.909Z,96554.53
2022-11-30T20:44:40.778Z,96599.31
2022-11-30T20:47:08.272Z,96589.38
2022-11-30T20:49:37.067Z,96596.50
2022-11-30T20:52:04.980Z,96589.00
2022-11-30T20:54:32.415Z,96589.31
2022-11-30T20:57:00.277Z,96595.91
2022-11-30T20:59:27.753Z,96601.66
2022-11-30T21:01:56.593Z,96606.78
2022-11-30T21:04:25.836Z,96603.81
2022-11-30T21:06:54.998Z,96610.34
2022-11-30T21:09:22.679Z,96609.34
2022-11-30T21:11:50.166Z,96606.38
2022-11-30T21:14:18.580Z,96595.84
2022-11-30T21:16:46.039Z,96600.63
2022-11-30T21:19:14.193Z,96606.78
2022-11-30T21:21:41.652Z,96605.63
2022-11-30T21:24:12.694Z,96609.59
2022-11-30T21:26:41.814Z,96606.16
2022-11-30T21:29:12.913Z,96602.44
2022-11-30T21:31:40.873Z,96614.69
2022-11-30T21:34:09.212Z,96611.91
2022-11-30T21:36:36.734Z,96611.31
2022-11-30T21:39:07.251Z,96612.09
2022-11-30T21:41:38.540Z,96606.94
2022-11-30T21:44:07.874Z,96610.13
2022-11-30T21:46:35.505Z,96606.94
2022-11-30T21:49:03.736Z,96599.03
2022-11-30T21:51:32.588Z,96619.50
2022-11-30T21:54:01.897Z,96588.41
2022-11-30T21:56:31.155Z,96615.28
2022-11-30T21:59:00.902Z,96578.84
2022-11-30T22:01:30.344Z,96607.91
2022-11-30T22:03:59.530Z,96617.63
2022-11-30T22:06:28.421Z,96604.97
2022-11-30T22:09:02.682Z,96609.34
2022-11-30T22:11:31.464Z,96609.28
2022-11-30T22:14:00.268Z,96604.56
2022-11-30T22:16:34.151Z,96608.53
2022-11-30T22:19:03.483Z,96613.47
2022-11-30T22:21:32.213Z,96599.19
2022-11-30T22:24:01.417Z,96598.56
2022-11-30T22:26:30.457Z,96606.16
2022-11-30T22:29:01.439Z,96605.94
2022-11-30T22:31:31.851Z,96605.78
2022-11-30T22:33:59.738Z,96600.00
2022-11-30T22:36:29.493Z,96608.75
2022-11-30T22:38:59.106Z,96604.03
2022-11-30T22:41:27.699Z,96611.16
2022-11-30T22:43:56.197Z,96600.78
2022-11-30T22:46:26.804Z,96597.38
2022-11-30T22:48:54.476Z,96601.41
2022-11-30T22:51:24.524Z,96609.34
2022-11-30T22:53:52.762Z,96606.16
2022-11-30T22:56:22.326Z,96607.31
2022-11-30T22:58:53.822Z,96605.34
2022-11-30T23:01:23.310Z,96584.00
2022-11-30T23:03:54.147Z,96572.91
2022-11-30T23:06:22.075Z,96597.38
2022-11-30T23:08:51.294Z,96602.53
2022-11-30T23:11:20.834Z,96609.34
2022-11-30T23:13:48.752Z,96557.22
2022-11-30T23:16:17.454Z,96594.44
2022-11-30T23:18:48.142Z,96597.22
2022-11-30T23:21:19.305Z,96600.41
2022-11-30T23:23:47.611Z,96589.25
2022-11-30T23:26:17.091Z,96596.63
2022-11-30T23:28:46.555Z,96592.44
2022-11-30T23:31:33.513Z,96592.84
2022-11-30T23:34:03.913Z,96591.06
2022-11-30T23:36:32.966Z,96595.63
2022-11-30T23:39:02.773Z,96598.16
2022-11-30T23:41:30.547Z,96594.75
2022-11-30T23:43:57.997Z,96594.34
2022-11-30T23:46:25.954Z,96596.59
2022-11-30T23:48:54.823Z,96596.22
2022-11-30T23:51:22.770Z,96586.88
2022-11-30T23:53:51.817Z,96596.16
2022-11-30T23:56:21.692Z,96594.03
2022-11-30T23:58:49.593Z,96588.88
